Time;durP1;ratioP1;P1;durP2;ratioP2;P2;SDS_P1;SDS_P2;PMS_P1;PMS_P2;Temp;Humidity;BMP_temperature;BMP_pressure;BME280_temperature;BME280_humidity;BME280_pressure;Samples;Min_cycle;Max_cycle;Signal;HPM_P1;HPM_P2
2022/09/07 00:01:40;;;;;;;33.02;19.77;;;;;;;;;;1714051;83;21520;-83
2022/09/07 00:04:07;;;;;;;33.63;18.75;;;;;;;;;;1714680;82;21052;-84
2022/09/07 00:06:34;;;;;;;35.00;21.23;;;;;;;;;;1713394;83;21064;-82
2022/09/07 00:09:00;;;;;;;36.63;19.55;;;;;;;;;;1712895;82;21092;-82
2022/09/07 00:11:26;;;;;;;31.73;18.80;;;;;;;;;;1709449;82;20997;-83
2022/09/07 00:13:53;;;;;;;37.10;19.80;;;;;;;;;;1712982;83;21048;-82
2022/09/07 00:16:21;;;;;;;36.58;18.75;;;;;;;;;;1714418;82;21045;-82
2022/09/07 00:18:47;;;;;;;35.50;19.87;;;;;;;;;;1714878;82;21036;-83
2022/09/07 00:21:14;;;;;;;37.13;20.02;;;;;;;;;;1713236;82;22406;-83
2022/09/07 00:23:40;;;;;;;34.13;18.00;;;;;;;;;;1715251;82;21052;-88
2022/09/07 00:26:10;;;;;;;34.05;19.50;;;;;;;;;;1714845;82;21000;-83
2022/09/07 00:28:37;;;;;;;35.45;19.40;;;;;;;;;;1727668;82;21017;-84
2022/09/07 00:31:03;;;;;;;36.20;19.52;;;;;;;;;;1732850;82;21028;-83
2022/09/07 00:33:29;;;;;;;34.73;18.60;;;;;;;;;;1731012;82;21020;-83
2022/09/07 00:35:56;;;;;;;36.68;18.67;;;;;;;;;;1732938;81;21579;-83
2022/09/07 00:38:22;;;;;;;35.23;19.15;;;;;;;;;;1732662;82;21044;-84
2022/09/07 00:40:49;;;;;;;33.73;18.98;;;;;;;;;;1730741;82;21083;-85
2022/09/07 00:43:16;;;;;;;32.10;18.62;;;;;;;;;;1729690;82;21071;-85
2022/09/07 00:45:42;;;;;;;30.52;17.70;;;;;;;;;;1731693;82;20980;-84
2022/09/07 00:48:10;;;;;;;30.15;17.05;;;;;;;;;;1731718;82;21004;-84
2022/09/07 00:50:56;;;;;;;31.12;17.67;;;;;;;;;;1730019;82;21067;-85
2022/09/07 00:53:26;;;;;;;31.50;17.30;;;;;;;;;;1728686;82;21043;-84
2022/09/07 00:55:52;;;;;;;32.65;16.80;;;;;;;;;;1729965;82;21677;-84
2022/09/07 00:58:19;;;;;;;26.15;16.27;;;;;;;;;;1729157;82;21016;-84
2022/09/07 01:03:36;;;;;;;29.18;16.45;;;;;;;;;;1790177;76;76483;-81
2022/09/07 01:06:07;;;;;;;29.77;16.30;;;;;;;;;;1772655;80;21055;-82
2022/09/07 01:08:34;;;;;;;33.98;17.60;;;;;;;;;;1765931;80;21001;-83
2022/09/07 01:11:00;;;;;;;33.35;16.93;;;;;;;;;;1771896;80;21101;-84
2022/09/07 01:13:29;;;;;;;29.48;17.30;;;;;;;;;;1771325;80;21050;-81
2022/09/07 01:16:05;;;;;;;31.33;16.62;;;;;;;;;;1767813;80;21049;-83
2022/09/07 01:18:43;;;;;;;26.17;16.25;;;;;;;;;;1771824;80;21030;-82
2022/09/07 01:21:14;;;;;;;29.23;15.78;;;;;;;;;;1768223;80;21125;-83
2022/09/07 01:23:48;;;;;;;27.52;16.40;;;;;;;;;;1771314;80;21498;-83
2022/09/07 01:26:16;;;;;;;31.87;16.45;;;;;;;;;;1770889;80;21037;-83
2022/09/07 01:28:46;;;;;;;27.25;15.65;;;;;;;;;;1750447;80;21011;-84
2022/09/07 01:31:17;;;;;;;29.55;16.15;;;;;;;;;;1743937;80;21023;-84
2022/09/07 01:33:48;;;;;;;28.05;16.20;;;;;;;;;;1770659;80;21014;-84
2022/09/07 01:36:25;;;;;;;30.37;16.23;;;;;;;;;;1774663;80;21450;-84
2022/09/07 01:38:55;;;;;;;28.32;16.67;;;;;;;;;;1732703;82;22102;-84
2022/09/07 01:41:28;;;;;;;25.60;15.18;;;;;;;;;;1732249;82;20994;-85
2022/09/07 01:43:54;;;;;;;;;;;;;;;;;;1735319;82;21022;-85
2022/09/07 01:46:27;;;;;;;27.27;15.95;;;;;;;;;;1731107;82;20133;-85
2022/09/07 01:48:54;;;;;;;26.75;16.82;;;;;;;;;;1731677;82;21527;-85
2022/09/07 01:51:20;;;;;;;26.27;14.70;;;;;;;;;;1729631;82;21010;-85
2022/09/07 01:53:51;;;;;;;23.22;14.15;;;;;;;;;;1728959;82;21014;-85
2022/09/07 01:56:19;;;;;;;26.75;14.73;;;;;;;;;;1732409;82;21020;-86
2022/09/07 01:58:47;;;;;;;25.65;14.10;;;;;;;;;;1731903;82;20996;-84
2022/09/07 02:01:15;;;;;;;27.73;13.80;;;;;;;;;;1735142;82;21490;-84
2022/09/07 02:03:45;;;;;;;24.02;13.40;;;;;;;;;;1722903;82;21533;-84
2022/09/07 02:06:14;;;;;;;27.87;14.10;;;;;;;;;;1708996;82;21051;-84
2022/09/07 02:08:42;;;;;;;22.58;12.93;;;;;;;;;;1710265;82;22313;-84
2022/09/07 02:11:09;;;;;;;22.22;11.95;;;;;;;;;;1710201;82;21030;-85
2022/09/07 02:13:39;;;;;;;19.15;11.30;;;;;;;;;;1712356;84;21019;-83
2022/09/07 02:16:10;;;;;;;21.42;12.33;;;;;;;;;;1701454;84;21023;-84
2022/09/07 02:18:37;;;;;;;22.87;11.73;;;;;;;;;;1706015;84;20980;-84
2022/09/07 02:21:03;;;;;;;23.45;12.00;;;;;;;;;;1711837;82;21074;-83
2022/09/07 02:23:41;;;;;;;22.62;12.15;;;;;;;;;;1709063;82;21561;-84
2022/09/07 02:26:09;;;;;;;20.43;12.10;;;;;;;;;;1709904;82;21059;-82
2022/09/07 02:28:35;;;;;;;22.02;11.73;;;;;;;;;;1708888;82;21042;-83
2022/09/07 02:31:01;;;;;;;19.90;11.05;;;;;;;;;;1709036;82;22243;-84
2022/09/07 02:33:28;;;;;;;20.37;12.18;;;;;;;;;;1709114;82;21068;-85
2022/09/07 02:35:54;;;;;;;19.12;11.78;;;;;;;;;;1709090;82;21094;-84
2022/09/07 02:38:20;;;;;;;20.77;11.63;;;;;;;;;;1709962;82;21007;-84
2022/09/07 02:40:51;;;;;;;19.12;10.90;;;;;;;;;;1709608;82;21072;-84
2022/09/07 02:43:17;;;;;;;21.60;11.12;;;;;;;;;;1710970;82;21519;-85
2022/09/07 02:45:48;;;;;;;19.82;11.50;;;;;;;;;;1710774;82;21031;-85
2022/09/07 02:48:28;;;;;;;19.87;11.05;;;;;;;;;;1663545;82;21047;-84
2022/09/07 02:50:59;;;;;;;21.55;11.60;;;;;;;;;;1709775;82;21617;-84
2022/09/07 02:53:36;;;;;;;17.40;10.82;;;;;;;;;;1711601;82;21038;-84
2022/09/07 02:56:08;;;;;;;22.87;11.45;;;;;;;;;;1713902;82;21051;-86
2022/09/07 02:58:36;;;;;;;17.52;11.28;;;;;;;;;;1710670;82;21055;-85
2022/09/07 03:01:09;;;;;;;19.87;11.57;;;;;;;;;;1710619;82;21062;-83
2022/09/07 03:03:43;;;;;;;18.35;10.50;;;;;;;;;;1709416;82;21194;-83
2022/09/07 03:06:14;;;;;;;20.02;10.50;;;;;;;;;;1703913;83;21086;-83
2022/09/07 03:08:42;;;;;;;17.67;10.58;;;;;;;;;;1705314;83;21082;-83
2022/09/07 03:11:10;;;;;;;19.00;11.18;;;;;;;;;;1705121;82;21081;-83
2022/09/07 03:13:36;;;;;;;19.45;10.72;;;;;;;;;;1705419;83;21075;-82
2022/09/07 03:16:02;;;;;;;19.45;11.88;;;;;;;;;;1708227;82;21358;-83
2022/09/07 03:18:29;;;;;;;22.15;11.88;;;;;;;;;;1704495;82;21086;-84
2022/09/07 03:20:55;;;;;;;18.27;10.95;;;;;;;;;;1704297;83;20987;-84
2022/09/07 03:23:21;;;;;;;20.65;11.28;;;;;;;;;;1703150;83;20998;-83
2022/09/07 03:25:47;;;;;;;18.90;10.38;;;;;;;;;;1703032;83;21000;-84
2022/09/07 03:28:14;;;;;;;25.32;10.60;;;;;;;;;;1705090;83;21563;-83
2022/09/07 03:33:37;;;;;;;26.57;10.43;;;;;;;;;;1797927;78;22830;-72
2022/09/07 03:36:03;;;;;;;19.25;10.93;;;;;;;;;;1777868;78;21032;-72
2022/09/07 03:38:29;;;;;;;17.70;9.53;;;;;;;;;;1779051;78;21083;-74
2022/09/07 03:40:57;;;;;;;17.82;9.00;;;;;;;;;;1777917;78;21066;-74
2022/09/07 03:43:23;;;;;;;17.73;9.23;;;;;;;;;;1777165;78;21032;-74
2022/09/07 03:45:49;;;;;;;16.57;9.38;;;;;;;;;;1777230;78;21028;-74
2022/09/07 03:48:16;;;;;;;21.57;10.53;;;;;;;;;;1776102;78;21065;-74
2022/09/07 03:50:42;;;;;;;17.70;9.45;;;;;;;;;;1779816;78;21024;-74
2022/09/07 03:53:08;;;;;;;16.90;9.68;;;;;;;;;;1777299;78;20980;-74
2022/09/07 03:55:33;;;;;;;18.35;9.80;;;;;;;;;;1776171;78;21062;-73
2022/09/07 03:57:59;;;;;;;19.35;9.73;;;;;;;;;;1778019;78;21055;-74
2022/09/07 04:00:25;;;;;;;41.63;10.80;;;;;;;;;;1778296;78;20988;-73
2022/09/07 04:02:51;;;;;;;28.47;9.63;;;;;;;;;;1770344;78;21110;-73
2022/09/07 04:05:17;;;;;;;18.57;8.70;;;;;;;;;;1758467;80;22510;-73
2022/09/07 04:07:44;;;;;;;14.73;8.63;;;;;;;;;;1757439;80;21766;-72
2022/09/07 04:10:10;;;;;;;66.57;16.95;;;;;;;;;;1726228;80;21023;-72
2022/09/07 04:12:36;;;;;;;19.07;9.33;;;;;;;;;;1756821;80;21514;-73
2022/09/07 04:15:03;;;;;;;15.05;7.67;;;;;;;;;;1773034;80;21111;-70
2022/09/07 04:17:29;;;;;;;14.80;7.72;;;;;;;;;;1718500;83;21064;-72
2022/09/07 04:19:55;;;;;;;15.65;7.03;;;;;;;;;;1718008;83;21511;-72
2022/09/07 04:22:21;;;;;;;11.53;6.90;;;;;;;;;;1696031;83;21052;-73
2022/09/07 04:24:48;;;;;;;11.80;6.37;;;;;;;;;;1757899;81;21092;-72
2022/09/07 04:27:14;;;;;;;11.43;6.33;;;;;;;;;;1727941;81;21000;-68
2022/09/07 04:29:40;;;;;;;14.13;6.83;;;;;;;;;;1730283;83;21538;-69
2022/09/07 04:32:07;;;;;;;11.10;6.30;;;;;;;;;;1693701;83;21093;-69
2022/09/07 04:34:33;;;;;;;21.68;7.65;;;;;;;;;;1761532;81;21012;-70
2022/09/07 04:36:59;;;;;;;19.98;7.08;;;;;;;;;;1746666;82;21078;-70
2022/09/07 04:39:25;;;;;;;11.45;6.12;;;;;;;;;;1746326;80;22280;-69
2022/09/07 04:41:51;;;;;;;8.55;5.42;;;;;;;;;;1746765;80;21137;-69
2022/09/07 04:44:18;;;;;;;23.02;6.15;;;;;;;;;;1744807;80;21581;-70
2022/09/07 04:46:44;;;;;;;19.05;6.08;;;;;;;;;;1748402;80;20984;-70
2022/09/07 04:49:10;;;;;;;50.12;8.10;;;;;;;;;;1744122;82;21088;-69
2022/09/07 04:51:37;;;;;;;13.30;5.67;;;;;;;;;;1741306;82;21085;-71
2022/09/07 04:54:05;;;;;;;9.03;5.25;;;;;;;;;;1745948;82;21091;-72
2022/09/07 04:56:31;;;;;;;23.40;5.85;;;;;;;;;;1711154;82;21131;-72
2022/09/07 04:58:58;;;;;;;8.40;4.47;;;;;;;;;;1747162;81;21485;-73
2022/09/07 05:01:24;;;;;;;9.10;5.47;;;;;;;;;;1747763;82;21016;-72
2022/09/07 05:03:50;;;;;;;8.25;5.03;;;;;;;;;;1731772;82;21061;-73
2022/09/07 05:06:17;;;;;;;13.13;6.08;;;;;;;;;;1688328;84;21077;-72
2022/09/07 05:08:44;;;;;;;23.30;6.40;;;;;;;;;;1698231;83;21366;-73
2022/09/07 05:11:11;;;;;;;11.43;5.28;;;;;;;;;;1747553;80;21004;-73
2022/09/07 05:13:38;;;;;;;15.40;7.20;;;;;;;;;;1743219;81;20988;-73
2022/09/07 05:16:07;;;;;;;10.03;5.55;;;;;;;;;;1727623;82;21003;-73
2022/09/07 05:18:34;;;;;;;7.95;4.80;;;;;;;;;;1721965;82;21063;-73
2022/09/07 05:21:10;;;;;;;7.90;4.62;;;;;;;;;;1672437;84;21034;-72
2022/09/07 05:23:36;;;;;;;7.78;5.47;;;;;;;;;;1741229;81;20976;-72
2022/09/07 05:26:02;;;;;;;8.78;5.10;;;;;;;;;;1712767;82;21042;-73
2022/09/07 05:28:28;;;;;;;6.58;4.35;;;;;;;;;;1744138;80;21085;-73
2022/09/07 05:30:54;;;;;;;10.05;6.58;;;;;;;;;;1743439;80;21448;-72
2022/09/07 05:33:22;;;;;;;11.70;7.15;;;;;;;;;;1748375;80;21011;-74
2022/09/07 05:35:55;;;;;;;9.23;5.40;;;;;;;;;;1751727;80;20994;-73
2022/09/07 05:38:21;;;;;;;;;;;;;;;;;;1745482;80;21021;-73
2022/09/07 05:40:47;;;;;;;8.70;4.40;;;;;;;;;;1767625;80;20138;-73
2022/09/07 05:43:13;;;;;;;6.72;4.30;;;;;;;;;;1752600;81;21024;-73
2022/09/07 05:45:39;;;;;;;7.05;4.28;;;;;;;;;;1751041;80;20997;-74
2022/09/07 05:48:06;;;;;;;6.40;3.90;;;;;;;;;;1780619;80;21532;-73
2022/09/07 05:50:32;;;;;;;9.95;4.22;;;;;;;;;;1756361;80;21083;-73
2022/09/07 05:52:58;;;;;;;6.97;3.90;;;;;;;;;;1750028;80;20997;-74
2022/09/07 05:55:24;;;;;;;7.03;4.10;;;;;;;;;;1748323;80;22128;-75
2022/09/07 05:57:50;;;;;;;8.10;3.92;;;;;;;;;;1749620;80;21033;-74
2022/09/07 06:00:16;;;;;;;6.08;4.17;;;;;;;;;;1749674;80;21012;-73
2022/09/07 06:02:42;;;;;;;10.40;4.65;;;;;;;;;;1717968;82;21149;-73
2022/09/07 06:05:09;;;;;;;7.35;4.67;;;;;;;;;;1687086;84;21060;-73
2022/09/07 06:07:37;;;;;;;7.62;4.40;;;;;;;;;;1749430;80;21787;-72
2022/09/07 06:10:07;;;;;;;8.43;4.85;;;;;;;;;;1749573;80;21073;-73
2022/09/07 06:12:33;;;;;;;8.30;4.25;;;;;;;;;;1746916;80;21008;-74
2022/09/07 06:15:00;;;;;;;7.33;4.42;;;;;;;;;;1749543;80;21007;-73
2022/09/07 06:17:27;;;;;;;7.03;4.55;;;;;;;;;;1747188;80;21002;-74
2022/09/07 06:19:53;;;;;;;6.60;4.35;;;;;;;;;;1750825;80;21484;-73
2022/09/07 06:22:19;;;;;;;9.38;4.75;;;;;;;;;;1736353;82;21521;-74
2022/09/07 06:24:46;;;;;;;12.25;5.28;;;;;;;;;;1780568;80;21075;-73
2022/09/07 06:27:12;;;;;;;7.90;4.78;;;;;;;;;;1770695;80;20942;-73
2022/09/07 06:29:39;;;;;;;7.12;4.10;;;;;;;;;;1769166;80;21044;-73
2022/09/07 06:32:05;;;;;;;11.10;6.28;;;;;;;;;;1753357;80;21524;-73
2022/09/07 06:34:32;;;;;;;7.83;4.40;;;;;;;;;;1739759;81;21059;-73
2022/09/07 06:36:58;;;;;;;7.55;4.83;;;;;;;;;;1756938;81;21083;-72
2022/09/07 06:39:24;;;;;;;9.00;4.70;;;;;;;;;;1729661;81;21577;-73
2022/09/07 06:41:50;;;;;;;8.23;4.45;;;;;;;;;;1725487;81;21037;-73
2022/09/07 06:44:18;;;;;;;10.15;5.15;;;;;;;;;;1727281;81;21025;-73
2022/09/07 06:46:44;;;;;;;7.60;4.60;;;;;;;;;;1726161;83;21017;-73
2022/09/07 06:49:10;;;;;;;8.78;4.35;;;;;;;;;;1721496;81;21074;-74
2022/09/07 06:51:36;;;;;;;6.72;4.33;;;;;;;;;;1724687;81;21563;-72
2022/09/07 06:54:04;;;;;;;8.10;4.47;;;;;;;;;;1732172;81;21519;-72
2022/09/07 06:56:30;;;;;;;9.93;4.85;;;;;;;;;;1725719;82;21015;-72
2022/09/07 06:58:56;;;;;;;8.00;4.30;;;;;;;;;;1723653;83;21091;-71
2022/09/07 07:01:25;;;;;;;8.03;4.15;;;;;;;;;;1709653;81;21682;-72
2022/09/07 07:03:51;;;;;;;6.97;4.15;;;;;;;;;;1723777;81;21052;-72
2022/09/07 07:06:17;;;;;;;13.60;4.92;;;;;;;;;;1720125;83;21081;-71
2022/09/07 07:08:43;;;;;;;6.70;4.00;;;;;;;;;;1731949;81;21039;-71
2022/09/07 07:11:10;;;;;;;7.05;3.90;;;;;;;;;;1757648;81;21622;-72
2022/09/07 07:13:38;;;;;;;7.45;3.70;;;;;;;;;;1716655;81;21601;-70
2022/09/07 07:16:07;;;;;;;5.72;3.80;;;;;;;;;;1719458;83;21068;-71
2022/09/07 07:18:33;;;;;;;9.68;4.17;;;;;;;;;;1726183;83;21547;-71
2022/09/07 07:21:03;;;;;;;6.92;4.10;;;;;;;;;;1736425;81;21044;-68
2022/09/07 07:23:30;;;;;;;7.20;4.22;;;;;;;;;;1720117;81;21087;-70
2022/09/07 07:26:03;;;;;;;7.55;4.12;;;;;;;;;;1698622;84;21024;-69
2022/09/07 07:28:29;;;;;;;7.40;3.60;;;;;;;;;;1698767;84;21028;-70
2022/09/07 07:30:56;;;;;;;7.78;3.87;;;;;;;;;;1697968;83;21079;-71
2022/09/07 07:33:22;;;;;;;6.47;4.20;;;;;;;;;;1713006;83;21076;-70
2022/09/07 07:35:48;;;;;;;6.35;3.25;;;;;;;;;;1725105;80;21598;-70
2022/09/07 07:38:14;;;;;;;6.28;3.75;;;;;;;;;;1726112;83;21551;-72
2022/09/07 07:40:40;;;;;;;6.72;3.87;;;;;;;;;;1723991;81;20977;-73
2022/09/07 07:43:06;;;;;;;4.22;3.00;;;;;;;;;;1725503;83;20993;-70
2022/09/07 07:45:32;;;;;;;4.75;3.22;;;;;;;;;;1703370;83;21127;-70
2022/09/07 07:47:58;;;;;;;7.17;3.72;;;;;;;;;;1731353;81;21036;-70
2022/09/07 07:50:24;;;;;;;6.00;3.70;;;;;;;;;;1734832;81;21028;-70
2022/09/07 07:52:51;;;;;;;4.80;2.87;;;;;;;;;;1727156;83;21047;-71
2022/09/07 07:55:17;;;;;;;3.80;2.60;;;;;;;;;;1725706;83;21048;-71
2022/09/07 07:57:43;;;;;;;5.40;3.50;;;;;;;;;;1710364;83;21551;-71
2022/09/07 08:00:13;;;;;;;4.28;2.77;;;;;;;;;;1726088;83;21060;-70
2022/09/07 08:02:38;;;;;;;5.22;3.08;;;;;;;;;;1725844;82;21088;-70
2022/09/07 08:05:05;;;;;;;6.03;2.92;;;;;;;;;;1740101;81;21062;-70
2022/09/07 08:07:31;;;;;;;6.12;2.85;;;;;;;;;;1745632;82;21579;-70
2022/09/07 08:09:58;;;;;;;5.72;2.80;;;;;;;;;;1718443;82;21080;-70
2022/09/07 08:12:25;;;;;;;4.22;2.33;;;;;;;;;;1727332;82;21113;-70
2022/09/07 08:14:52;;;;;;;3.20;2.10;;;;;;;;;;1698416;84;21079;-71
2022/09/07 08:17:18;;;;;;;4.80;2.42;;;;;;;;;;1699677;83;21111;-71
2022/09/07 08:19:45;;;;;;;3.70;2.20;;;;;;;;;;1734726;81;21025;-71
2022/09/07 08:22:11;;;;;;;3.00;1.90;;;;;;;;;;1718722;83;21040;-70
2022/09/07 08:24:36;;;;;;;5.20;2.00;;;;;;;;;;1712734;83;21039;-70
2022/09/07 08:27:02;;;;;;;3.52;2.58;;;;;;;;;;1727739;83;21040;-71
2022/09/07 08:29:28;;;;;;;4.97;2.30;;;;;;;;;;1721501;81;21092;-71
2022/09/07 08:31:55;;;;;;;3.42;2.15;;;;;;;;;;1717772;81;21052;-71
2022/09/07 08:34:21;;;;;;;3.58;2.33;;;;;;;;;;1742676;81;22108;-71
2022/09/07 08:36:47;;;;;;;3.80;2.62;;;;;;;;;;1732240;80;21028;-71
2022/09/07 08:39:12;;;;;;;4.47;2.20;;;;;;;;;;1730490;83;21063;-70
2022/09/07 08:41:44;;;;;;;6.80;2.80;;;;;;;;;;1730077;83;21043;-70
2022/09/07 08:44:18;;;;;;;4.75;2.67;;;;;;;;;;1727048;82;21063;-69
2022/09/07 08:46:49;;;;;;;4.30;2.90;;;;;;;;;;1726166;83;21051;-71
2022/09/07 08:49:33;;;;;;;4.95;2.62;;;;;;;;;;1732473;81;21662;-69
2022/09/07 08:52:01;;;;;;;4.12;2.62;;;;;;;;;;1734553;81;21064;-68
2022/09/07 08:54:28;;;;;;;3.72;2.42;;;;;;;;;;1739980;81;21067;-68
2022/09/07 08:56:55;;;;;;;5.08;2.17;;;;;;;;;;1731638;81;21047;-69
2022/09/07 08:59:25;;;;;;;6.28;2.50;;;;;;;;;;1733601;81;21028;-72
2022/09/07 09:01:52;;;;;;;3.85;2.40;;;;;;;;;;1730663;81;21698;-72
2022/09/07 09:04:23;;;;;;;3.40;2.10;;;;;;;;;;1727179;83;21055;-73
2022/09/07 09:06:51;;;;;;;5.25;2.42;;;;;;;;;;1714538;83;21563;-71
2022/09/07 09:09:19;;;;;;;4.65;2.67;;;;;;;;;;1725137;81;21051;-73
2022/09/07 09:12:05;;;;;;;3.67;2.67;;;;;;;;;;1731021;82;21000;-72
2022/09/07 09:14:42;;;;;;;4.55;2.50;;;;;;;;;;1720742;81;21032;-72
2022/09/07 09:17:09;;;;;;;4.45;2.50;;;;;;;;;;1744963;81;21035;-73
2022/09/07 09:19:54;;;;;;;7.78;2.65;;;;;;;;;;1732165;81;21058;-72
2022/09/07 09:22:21;;;;;;;4.28;2.47;;;;;;;;;;1730149;81;21670;-73
2022/09/07 09:24:48;;;;;;;4.72;2.60;;;;;;;;;;1730833;81;21166;-73
2022/09/07 09:27:15;;;;;;;4.75;2.80;;;;;;;;;;1719710;81;21346;-72
2022/09/07 09:29:41;;;;;;;4.42;2.42;;;;;;;;;;1739507;81;22356;-70
2022/09/07 09:32:26;;;;;;;8.03;2.40;;;;;;;;;;1742356;81;21605;-71
2022/09/07 09:34:53;;;;;;;5.00;2.70;;;;;;;;;;1734622;81;21020;-69
2022/09/07 09:37:21;;;;;;;3.83;2.40;;;;;;;;;;1735488;81;21527;-73
2022/09/07 09:39:48;;;;;;;6.37;2.50;;;;;;;;;;1662864;85;21060;-72
2022/09/07 09:42:14;;;;;;;3.37;2.37;;;;;;;;;;1615168;87;21048;-72
2022/09/07 09:44:41;;;;;;;3.72;2.47;;;;;;;;;;1640619;86;21071;-72
2022/09/07 09:47:09;;;;;;;56.53;37.03;;;;;;;;;;1724584;81;21011;-74
2022/09/07 09:49:36;;;;;;;124.35;74.97;;;;;;;;;;1722656;81;21067;-76
2022/09/07 09:52:03;;;;;;;14.25;10.30;;;;;;;;;;1747995;82;21614;-75
2022/09/07 09:54:35;;;;;;;5.20;3.20;;;;;;;;;;1752356;81;21068;-70
2022/09/07 09:57:02;;;;;;;8.20;2.85;;;;;;;;;;1744855;81;21075;-71
2022/09/07 09:59:30;;;;;;;5.60;2.40;;;;;;;;;;1736018;81;21487;-73
2022/09/07 10:01:56;;;;;;;49.65;4.90;;;;;;;;;;1744820;81;21103;-66
2022/09/07 10:04:32;;;;;;;3.47;2.10;;;;;;;;;;1756725;81;20997;-67
2022/09/07 10:07:08;;;;;;;4.12;2.37;;;;;;;;;;1740932;81;21008;-71
2022/09/07 10:09:35;;;;;;;4.72;2.35;;;;;;;;;;1747182;81;21031;-72
2022/09/07 10:12:02;;;;;;;5.97;2.45;;;;;;;;;;1739066;82;21071;-73
2022/09/07 10:14:29;;;;;;;3.67;2.35;;;;;;;;;;1726573;82;21579;-72
2022/09/07 10:16:56;;;;;;;5.92;2.60;;;;;;;;;;1745196;81;21008;-73
2022/09/07 10:19:24;;;;;;;6.65;2.70;;;;;;;;;;1728290;82;21560;-75
2022/09/07 10:21:55;;;;;;;4.28;2.33;;;;;;;;;;1737293;82;21008;-74
2022/09/07 10:24:24;;;;;;;4.05;2.50;;;;;;;;;;1747842;82;21057;-67
2022/09/07 10:26:50;;;;;;;3.85;2.52;;;;;;;;;;1748149;82;21012;-67
2022/09/07 10:29:18;;;;;;;4.70;2.67;;;;;;;;;;1708580;82;21011;-68
2022/09/07 10:31:49;;;;;;;3.17;2.30;;;;;;;;;;1745695;81;21092;-68
2022/09/07 10:34:19;;;;;;;5.45;2.20;;;;;;;;;;1741986;81;21028;-66
2022/09/07 10:36:59;;;;;;;5.83;2.35;;;;;;;;;;1734579;81;21123;-67
2022/09/07 10:39:26;;;;;;;4.78;2.33;;;;;;;;;;1727442;82;21063;-66
2022/09/07 10:41:55;;;;;;;3.75;2.20;;;;;;;;;;1723412;82;21068;-67
2022/09/07 10:44:23;;;;;;;3.45;2.35;;;;;;;;;;1700544;83;21028;-67
2022/09/07 10:46:54;;;;;;;10.98;8.08;;;;;;;;;;1716231;83;21068;-66
2022/09/07 10:49:26;;;;;;;4.28;2.55;;;;;;;;;;1717414;83;21579;-67
2022/09/07 10:52:10;;;;;;;4.47;2.30;;;;;;;;;;1710412;83;21607;-66
2022/09/07 10:54:38;;;;;;;3.42;2.10;;;;;;;;;;1712830;83;21086;-66
2022/09/07 10:57:09;;;;;;;4.10;2.60;;;;;;;;;;1718727;83;21063;-65
2022/09/07 10:59:38;;;;;;;3.45;2.05;;;;;;;;;;1737929;81;21043;-65
2022/09/07 11:02:15;;;;;;;3.60;2.12;;;;;;;;;;1727022;83;21139;-67
2022/09/07 11:05:10;;;;;;;4.80;2.50;;;;;;;;;;1718464;83;21045;-65
2022/09/07 11:07:42;;;;;;;4.80;2.35;;;;;;;;;;1710048;83;21091;-67
2022/09/07 11:10:14;;;;;;;5.92;2.50;;;;;;;;;;1717879;83;21049;-66
2022/09/07 11:12:59;;;;;;;3.10;2.22;;;;;;;;;;1718971;83;21080;-65
2022/09/07 11:15:30;;;;;;;4.60;2.77;;;;;;;;;;1747958;81;21063;-67
2022/09/07 11:18:04;;;;;;;4.95;2.60;;;;;;;;;;1749147;82;21506;-68
2022/09/07 11:20:36;;;;;;;4.35;2.50;;;;;;;;;;1732736;81;21065;-69
2022/09/07 11:23:04;;;;;;;3.40;2.35;;;;;;;;;;1703291;83;21060;-68
2022/09/07 11:25:32;;;;;;;3.40;2.40;;;;;;;;;;1716983;83;21072;-68
2022/09/07 11:28:00;;;;;;;5.25;2.50;;;;;;;;;;1714536;82;21083;-68
2022/09/07 11:30:28;;;;;;;4.28;3.00;;;;;;;;;;1716574;83;21028;-67
2022/09/07 11:33:05;;;;;;;4.90;2.60;;;;;;;;;;1723852;81;21031;-66
2022/09/07 11:35:45;;;;;;;4.20;2.58;;;;;;;;;;1728947;80;21523;-66
2022/09/07 11:38:12;;;;;;;3.30;2.33;;;;;;;;;;1746319;82;21558;-66
2022/09/07 11:40:41;;;;;;;3.80;2.50;;;;;;;;;;1739553;82;21031;-65
2022/09/07 11:43:25;;;;;;;4.12;2.75;;;;;;;;;;1743503;80;20994;-66
2022/09/07 11:45:53;;;;;;;5.45;2.47;;;;;;;;;;1741126;81;21013;-65
2022/09/07 11:48:27;;;;;;;4.28;2.45;;;;;;;;;;1774982;80;21824;-66
2022/09/07 11:51:01;;;;;;;4.42;2.50;;;;;;;;;;1730990;80;20996;-66
2022/09/07 11:53:29;;;;;;;4.60;2.60;;;;;;;;;;1669416;84;21100;-66
2022/09/07 11:56:00;;;;;;;11.53;2.70;;;;;;;;;;1653563;85;21088;-67
2022/09/07 11:58:31;;;;;;;5.58;2.52;;;;;;;;;;1659366;84;21687;-66
2022/09/07 12:01:07;;;;;;;3.58;2.37;;;;;;;;;;1754302;81;21096;-66
2022/09/07 12:03:52;;;;;;;5.20;2.72;;;;;;;;;;1696641;84;21013;-65
2022/09/07 12:06:29;;;;;;;5.05;2.30;;;;;;;;;;1699358;84;21013;-66
2022/09/07 12:09:02;;;;;;;18.55;3.20;;;;;;;;;;1736552;81;21036;-66
2022/09/07 12:11:48;;;;;;;7.22;3.08;;;;;;;;;;1701326;84;21112;-66
2022/09/07 12:14:19;;;;;;;5.85;2.60;;;;;;;;;;1733320;80;21635;-66
2022/09/07 12:17:04;;;;;;;5.70;4.20;;;;;;;;;;1724116;80;21036;-66
2022/09/07 12:19:30;;;;;;;9.28;5.25;;;;;;;;;;1752584;81;21024;-67
2022/09/07 12:21:56;;;;;;;6.70;4.50;;;;;;;;;;1746130;82;21032;-68
2022/09/07 12:24:40;;;;;;;5.75;3.77;;;;;;;;;;1746268;82;21064;-67
2022/09/07 12:27:17;;;;;;;5.17;3.35;;;;;;;;;;1749241;80;21044;-67
2022/09/07 12:29:43;;;;;;;6.45;3.42;;;;;;;;;;1746446;81;21135;-67
2022/09/07 12:32:09;;;;;;;5.30;3.20;;;;;;;;;;1751627;80;21555;-68
2022/09/07 12:34:37;;;;;;;4.10;3.12;;;;;;;;;;1751573;81;21759;-67
2022/09/07 12:37:05;;;;;;;5.33;3.35;;;;;;;;;;1721838;82;21504;-68
2022/09/07 12:39:31;;;;;;;4.75;3.33;;;;;;;;;;1713942;82;21047;-67
2022/09/07 12:42:05;;;;;;;6.22;3.42;;;;;;;;;;1717426;82;21376;-65
2022/09/07 12:44:32;;;;;;;6.08;3.80;;;;;;;;;;1716132;83;21099;-66
2022/09/07 12:47:03;;;;;;;8.35;5.50;;;;;;;;;;1717152;83;21082;-65
2022/09/07 12:49:40;;;;;;;7.80;5.33;;;;;;;;;;1711608;83;21053;-65
2022/09/07 12:52:24;;;;;;;7.83;4.92;;;;;;;;;;1708576;82;21531;-65
2022/09/07 12:54:55;;;;;;;6.95;4.67;;;;;;;;;;1714059;83;21031;-67
2022/09/07 12:57:30;;;;;;;5.45;3.83;;;;;;;;;;1734700;82;21068;-68
2022/09/07 13:00:13;;;;;;;7.30;3.80;;;;;;;;;;1705893;82;21091;-66
2022/09/07 13:02:58;;;;;;;4.87;3.62;;;;;;;;;;1716114;83;21648;-68
2022/09/07 13:05:43;;;;;;;4.20;3.30;;;;;;;;;;1715376;83;21091;-66
2022/09/07 13:08:11;;;;;;;5.60;3.83;;;;;;;;;;1716156;82;21092;-66
2022/09/07 13:10:37;;;;;;;4.75;2.65;;;;;;;;;;1721204;82;21075;-67
2022/09/07 13:13:08;;;;;;;4.30;2.50;;;;;;;;;;1717416;82;21004;-67
2022/09/07 13:15:48;;;;;;;3.98;2.37;;;;;;;;;;1693230;82;21624;-70
2022/09/07 13:18:28;;;;;;;4.25;2.52;;;;;;;;;;1715299;83;20980;-69
2022/09/07 13:21:09;;;;;;;4.40;2.37;;;;;;;;;;1724738;82;21504;-69
2022/09/07 13:23:37;;;;;;;6.00;2.75;;;;;;;;;;1718681;82;21086;-69
2022/09/07 13:26:03;;;;;;;4.60;2.35;;;;;;;;;;1731570;82;21042;-69
2022/09/07 13:28:34;;;;;;;3.87;2.40;;;;;;;;;;1717930;82;21039;-70
2022/09/07 13:31:20;;;;;;;3.85;2.40;;;;;;;;;;1714559;82;21502;-69
2022/09/07 13:33:47;;;;;;;3.52;2.67;;;;;;;;;;1698524;82;22281;-69
2022/09/07 13:36:19;;;;;;;7.22;3.77;;;;;;;;;;1722185;82;20976;-70
2022/09/07 13:38:46;;;;;;;123.70;77.12;;;;;;;;;;1707264;84;21069;-66
2022/09/07 13:41:13;;;;;;;57.35;35.68;;;;;;;;;;1747065;82;21507;-65
2022/09/07 13:43:39;;;;;;;39.53;27.30;;;;;;;;;;1727964;80;21040;-70
2022/09/07 13:46:13;;;;;;;8.00;5.08;;;;;;;;;;1680212;83;21024;-68
2022/09/07 13:48:45;;;;;;;6.92;3.52;;;;;;;;;;1729034;81;21035;-68
2022/09/07 13:51:13;;;;;;;4.75;2.95;;;;;;;;;;1727293;82;21060;-69
2022/09/07 13:53:41;;;;;;;7.15;3.20;;;;;;;;;;1759475;81;21016;-69
2022/09/07 13:56:26;;;;;;;3.72;2.77;;;;;;;;;;1777244;80;21107;-67
2022/09/07 13:58:52;;;;;;;3.22;2.25;;;;;;;;;;1757834;80;21052;-68
2022/09/07 14:01:19;;;;;;;5.67;3.00;;;;;;;;;;1746866;80;21103;-70
2022/09/07 14:03:50;;;;;;;4.45;2.75;;;;;;;;;;1731616;81;21574;-69
2022/09/07 14:06:21;;;;;;;7.97;2.90;;;;;;;;;;1732225;80;21496;-68
2022/09/07 14:08:55;;;;;;;5.17;2.90;;;;;;;;;;1746726;81;21617;-68
2022/09/07 14:11:22;;;;;;;5.33;2.90;;;;;;;;;;1714916;82;21055;-68
2022/09/07 14:14:07;;;;;;;6.12;2.85;;;;;;;;;;1735820;81;21048;-70
2022/09/07 14:16:34;;;;;;;4.33;2.60;;;;;;;;;;1676603;83;21041;-67
2022/09/07 14:19:02;;;;;;;3.90;2.77;;;;;;;;;;1762896;80;21016;-66
2022/09/07 14:21:28;;;;;;;5.08;2.83;;;;;;;;;;1693871;82;20989;-67
2022/09/07 14:23:56;;;;;;;6.55;2.98;;;;;;;;;;1773304;80;21009;-66
2022/09/07 14:26:22;;;;;;;3.77;2.80;;;;;;;;;;1707957;82;20997;-66
2022/09/07 14:28:49;;;;;;;6.50;3.02;;;;;;;;;;1704992;82;21084;-66
2022/09/07 14:31:16;;;;;;;4.97;2.70;;;;;;;;;;1747067;82;21519;-67
2022/09/07 14:33:55;;;;;;;7.15;2.87;;;;;;;;;;1735572;80;21561;-67
2022/09/07 14:36:26;;;;;;;5.72;2.83;;;;;;;;;;1758933;80;20997;-68
2022/09/07 14:38:53;;;;;;;4.33;3.00;;;;;;;;;;1746570;82;20991;-67
2022/09/07 14:41:19;;;;;;;10.63;3.45;;;;;;;;;;1754771;82;21038;-67
2022/09/07 14:43:52;;;;;;;5.83;2.70;;;;;;;;;;1749703;80;20980;-68
2022/09/07 14:46:26;;;;;;;5.85;3.25;;;;;;;;;;1755186;80;21015;-67
2022/09/07 14:48:52;;;;;;;6.33;2.90;;;;;;;;;;1754400;80;20960;-67
2022/09/07 14:51:22;;;;;;;5.85;2.87;;;;;;;;;;1743830;82;20996;-69
2022/09/07 14:53:49;;;;;;;6.72;3.30;;;;;;;;;;1737927;81;21024;-69